Погода Косевкона неделю

Мазовецкое воеводство, Польша

15 - 21 июля
  • 15июля
    Сегодня
    +19°
    +30°
    Практически безоблачно
    ВремяПогодаТемператураВлажностьДавлениеВетер, м/сВероятность осадков
    02:00Облачно с прояснениями+17°C92 %756 мм2.7 м/с2 %
    05:00Облачно с прояснениями+17°C92 %757 мм1.7 м/с3 %
    08:00Ясно и безоблачно+21°C81 %757 мм1.6 м/с22 %
    11:00Практически безоблачно+26°C64 %757 мм1.9 м/с11 %
    14:00Практически безоблачно+28°C56 %756 мм2.6 м/с7 %
    17:00Ясно и безоблачно+30°C46 %756 мм2.6 м/с2 %
    20:00Ясно и безоблачно+26°C63 %756 мм2.7 м/с2 %
    23:00Ясно и безоблачно+21°C79 %756 мм2.5 м/с2 %
  • 16июля
    Вторник
    +19°
    +34°
    Практически безоблачно
    ВремяПогодаТемператураВлажностьДавлениеВетер, м/сВероятность осадков
    02:00Ясно и безоблачно+19°C86 %756 мм3.2 м/с2 %
    05:00Ясно и безоблачно+19°C88 %756 мм2.6 м/с2 %
    08:00Ясно и безоблачно+25°C70 %756 мм3.2 м/с2 %
    11:00Ясно и безоблачно+31°C51 %755 мм4.8 м/с2 %
    14:00Практически безоблачно+33°C38 %754 мм5.2 м/с2 %
    17:00Небольшая облачность+30°C36 %753 мм4.0 м/с15 %
    20:00Облачно с прояснениями+27°C67 %754 мм3.1 м/с22 %
    23:00Облачно с прояснениями+23°C81 %754 мм3.1 м/с32 %
  • 17июля
    Среда
    +16°
    +29°
    Ясно и безоблачно
    ВремяПогодаТемператураВлажностьДавлениеВетер, м/сВероятность осадков
    02:00Облачно с прояснениями+20°C92 %755 мм3.3 м/с42 %
    05:00Облачно с прояснениями+19°C93 %756 мм2.6 м/с4 %
    08:00Ясно и безоблачно+23°C77 %758 мм2.8 м/с2 %
    11:00Ясно и безоблачно+27°C42 %758 мм4.2 м/с3 %
    14:00Ясно и безоблачно+28°C36 %758 мм5.1 м/с6 %
    17:00Ясно и безоблачно+28°C38 %758 мм5.3 м/с5 %
    20:00Ясно и безоблачно+25°C49 %759 мм3.5 м/с3 %
    23:00Ясно и безоблачно+21°C59 %760 мм3.0 м/с2 %
  • 18июля
    Четверг
    +14°
    +27°
    Ясно и безоблачно
    ВремяПогодаТемператураВлажностьДавлениеВетер, м/сВероятность осадков
    02:00Ясно и безоблачно+17°C76 %760 мм3.0 м/с6 %
    05:00Ясно и безоблачно+17°C83 %761 мм2.1 м/с2 %
    08:00Ясно и безоблачно+21°C62 %761 мм2.2 м/с2 %
    11:00Ясно и безоблачно+25°C47 %761 мм4.0 м/с2 %
    14:00Ясно и безоблачно+26°C40 %761 мм4.5 м/с4 %
    17:00Практически безоблачно+26°C39 %760 мм4.3 м/с2 %
    20:00Облачно с прояснениями+24°C50 %760 мм2.4 м/с2 %
    23:00Ясно и безоблачно+19°C73 %761 мм2.3 м/с2 %
  • 19июля
    Пятница
    +15°
    +27°
    Облачно с прояснениями
    ВремяПогодаТемператураВлажностьДавлениеВетер, м/сВероятность осадков
    02:00Ясно и безоблачно+16°C81 %761 мм2.9 м/с2 %
    05:00Облачно с прояснениями+15°C88 %761 мм1.9 м/с2 %
    08:00Облачно с прояснениями+21°C74 %761 мм1.2 м/с2 %
    11:00Облачно с прояснениями+25°C50 %761 мм3.2 м/с2 %
    14:00Облачно с прояснениями+26°C42 %760 мм3.8 м/с6 %
    17:00Небольшая облачность+27°C38 %759 мм4.0 м/с7 %
    20:00Облачно с прояснениями+23°C53 %759 мм3.3 м/с2 %
    23:00Ясно и безоблачно+19°C70 %759 мм2.2 м/с2 %
Мы используем cookies
Соглашаюсь